Terminal Aerodrome Forecast
Issued by NWS Louisville, KY

Home | Current Version | Previous Version | Text Only | Print | Product List | Glossary On
Versions: 1 2 3 4 5 6 7 8 9 10 11 12 13 14 15 16 17 18 19 20 21 22
000
FTUS43 KLMK 291700 RRA
TAFLEX
TAF
KLEX 291752Z 2918/3018 21015G25KT P6SM BKN035
     FM291900 22014G21KT P6SM VCTS BKN035CB BKN250
      TEMPO 2919/2923 4SM -TSRA BKN025CB
     FM292300 21007KT P6SM SCT040 SCT100
     FM301000 21005KT 6SM BR SCT250
     FM301400 24012G18KT P6SM SCT040=

USA.gov is the U.S. government's official web portal to all federal, state and local government web resources and services.